Time;durP1;ratioP1;P1;durP2;ratioP2;P2;SDS_P1;SDS_P2;PMS_P1;PMS_P2;Temp;Humidity;BMP_temperature;BMP_pressure;BME280_temperature;BME280_humidity;BME280_pressure;Samples;Min_cycle;Max_cycle;Signal;HPM_P1;HPM_P2
2024/03/12 18:41:28;;;;;;;;;2.33;2.33;;;;;21.85;42.39;101462.44;5066799;23;45839;-73
2024/03/12 18:43:53;;;;;;;;;3.00;1.67;;;;;21.90;42.95;101480.53;4934296;28;45410;-73
2024/03/12 18:46:20;;;;;;;;;1.33;1.33;;;;;21.91;42.79;101475.06;4937360;28;45899;-73
2024/03/12 18:48:46;;;;;;;;;6.33;2.00;;;;;21.94;42.97;101482.69;4938818;28;45426;-79
2024/03/12 18:51:13;;;;;;;;;4.00;2.00;;;;;21.98;43.31;101477.91;4929214;28;47034;-80
2024/03/12 18:53:39;;;;;;;;;3.67;2.00;;;;;21.97;43.41;101473.56;4929372;28;45482;-80
2024/03/12 18:56:04;;;;;;;;;2.00;2.00;;;;;21.90;43.57;101456.69;4928318;28;45457;-79
2024/03/12 18:58:30;;;;;;;;;1.33;1.00;;;;;21.88;43.01;101454.22;4931614;28;45713;-80
2024/03/12 19:00:56;;;;;;;;;1.67;1.67;;;;;22.06;43.00;101480.56;4930046;28;48219;-78
2024/03/12 19:03:30;;;;;;;;;1.00;1.00;;;;;21.98;43.28;101455.88;4930219;28;45542;-80
2024/03/12 19:05:57;;;;;;;;;1.00;1.00;;;;;22.10;43.50;101486.34;4927954;28;45708;-75
2024/03/12 19:08:25;;;;;;;;;4.00;2.67;;;;;22.06;43.08;101463.81;4930201;28;45551;-76
2024/03/12 19:10:51;;;;;;;;;2.33;2.00;;;;;22.12;43.05;101484.34;4932527;28;47069;-75
2024/03/12 19:13:16;;;;;;;;;1.00;1.00;;;;;21.96;43.49;101462.16;4928701;28;46596;-75
2024/03/12 19:15:44;;;;;;;;;3.00;2.33;;;;;22.13;43.07;101483.38;4931063;28;45636;-75
2024/03/12 19:18:13;;;;;;;;;1.00;1.00;;;;;22.13;43.47;101485.19;4928079;28;45517;-75
2024/03/12 19:20:40;;;;;;;;;1.00;1.00;;;;;22.12;43.51;101484.34;4928744;28;46013;-75
2024/03/12 19:23:06;;;;;;;;;1.00;1.00;;;;;22.14;43.69;101484.19;4928839;28;45402;-76
2024/03/12 19:25:31;;;;;;;;;2.33;2.33;;;;;22.15;43.54;101493.78;4926672;28;45331;-76
2024/03/12 19:27:57;;;;;;;;;4.00;2.00;;;;;22.15;43.17;101491.13;4929254;28;45326;-80
2024/03/12 19:30:24;;;;;;;;;4.00;3.00;;;;;22.17;43.70;101489.16;4926923;28;45351;-78
2024/03/12 19:32:50;;;;;;;;;1.00;1.00;;;;;22.18;43.45;101498.75;4929353;28;45266;-77
2024/03/12 19:35:17;;;;;;;;;4.00;2.33;;;;;22.18;43.78;101504.91;4927695;28;45220;-76
2024/03/12 19:37:43;;;;;;;;;3.00;1.67;;;;;22.20;43.88;101498.63;4928892;28;45501;-76
2024/03/12 19:40:16;;;;;;;;;2.00;2.00;;;;;22.13;43.55;101499.25;4929353;28;45584;-76
2024/03/12 19:42:46;;;;;;;;;0.00;0.00;;;;;22.20;43.44;101501.25;4933190;28;45414;-78
2024/03/12 19:45:17;;;;;;;;;2.00;1.00;;;;;22.21;43.72;101506.38;4927428;28;45511;-77
2024/03/12 19:47:46;;;;;;;;;1.00;1.00;;;;;22.10;44.09;101489.00;4929467;28;45465;-80
2024/03/12 19:50:16;;;;;;;;;3.00;3.00;;;;;22.21;43.37;101501.09;4928941;28;47015;-76
2024/03/12 19:52:46;;;;;;;;;1.33;1.00;;;;;22.22;43.87;101500.09;4929142;28;45528;-75
2024/03/12 19:55:17;;;;;;;;;1.67;1.67;;;;;22.26;43.19;101497.94;4928859;28;45520;-76
2024/03/12 19:57:43;;;;;;;;;1.00;1.00;;;;;22.24;43.93;101499.94;4930829;28;45498;-80
2024/03/12 20:00:12;;;;;;;;;2.33;2.33;;;;;22.17;43.86;101484.69;4937727;28;46299;-76
2024/03/12 20:02:39;;;;;;;;;2.00;1.00;;;;;22.27;43.34;101502.25;4929505;28;45359;-81
2024/03/12 20:05:08;;;;;;;;;2.67;2.67;;;;;22.28;43.61;101499.44;4928049;28;45342;-83
2024/03/12 20:07:33;;;;;;;;;0.00;0.00;;;;;22.26;43.50;101503.22;4929459;28;45455;-81
2024/03/12 20:09:59;;;;;;;;;3.00;1.00;;;;;22.31;43.61;101516.00;4926951;28;46298;-83
2024/03/12 20:12:27;;;;;;;;;2.00;2.00;;;;;22.31;43.82;101510.69;4946561;28;45430;-84
2024/03/12 20:14:52;;;;;;;;;1.00;1.00;;;;;22.28;43.39;101504.72;4946978;28;45319;-82
2024/03/12 20:17:20;;;;;;;;;2.00;1.00;;;;;22.33;43.75;101508.72;4943939;28;45342;-84
2024/03/12 20:19:46;;;;;;;;;1.00;1.00;;;;;22.16;43.48;101485.69;4957269;28;47263;-83
2024/03/12 20:22:12;;;;;;;;;1.00;1.00;;;;;22.15;43.84;101477.88;4944430;28;45489;-76
2024/03/12 20:24:38;;;;;;;;;3.00;1.00;;;;;22.34;44.01;101513.84;4958044;28;46081;-84
2024/03/12 20:27:03;;;;;;;;;1.00;1.00;;;;;22.28;43.67;101504.72;4953417;28;45560;-80
2024/03/12 20:29:36;;;;;;;;;2.00;2.00;;;;;22.18;43.92;101486.34;4957168;28;46360;-77
2024/03/12 20:32:06;;;;;;;;;1.00;1.00;;;;;22.33;43.76;101506.88;4943736;28;45464;-81
2024/03/12 20:34:35;;;;;;;;;2.00;1.00;;;;;22.39;43.71;101516.00;4956995;28;45328;-76
2024/03/12 20:37:00;;;;;;;;;3.00;2.00;;;;;22.09;43.55;101468.78;4955236;28;45551;-80
2024/03/12 20:39:32;;;;;;;;;2.00;1.33;;;;;22.34;43.36;101505.88;4954954;28;46382;-77
2024/03/12 20:41:57;;;;;;;;;1.33;1.33;;;;;21.93;43.63;101430.69;4953511;28;45408;-83
2024/03/12 20:44:23;;;;;;;;;3.00;1.67;;;;;21.39;43.43;101365.75;4947016;28;45267;-76
2024/03/12 20:46:48;;;;;;;;;3.00;2.00;;;;;21.71;43.75;101409.13;4947404;28;45452;-79
2024/03/12 20:49:14;;;;;;;;;3.00;1.33;;;;;21.94;44.00;101431.50;4952400;28;46053;-76
2024/03/12 20:51:39;;;;;;;;;2.33;2.00;;;;;22.05;43.53;101457.69;4954787;28;45299;-79
2024/03/12 20:54:07;;;;;;;;;2.00;1.00;;;;;22.43;43.89;101512.00;4943429;28;45451;-79
2024/03/12 20:56:32;;;;;;;;;2.00;2.00;;;;;22.14;43.69;101471.78;4954593;28;45432;-76
2024/03/12 20:58:57;;;;;;;;;1.00;1.00;;;;;22.21;43.88;101473.75;4940036;28;49128;-78
2024/03/12 21:01:23;;;;;;;;;3.00;1.00;;;;;22.40;43.72;101515.00;4943334;28;45982;-81
2024/03/12 21:03:49;;;;;;;;;1.33;1.33;;;;;22.46;43.75;101527.59;4949476;28;45503;-75
2024/03/12 21:06:14;;;;;;;;;2.00;0.67;;;;;22.37;43.79;101504.72;4952387;28;45460;-77
2024/03/12 21:08:39;;;;;;;;;1.00;1.00;;;;;22.37;43.70;101518.81;4939935;28;46088;-78
2024/03/12 21:11:04;;;;;;;;;1.00;1.00;;;;;22.39;43.78;101495.63;4952852;28;45415;-78
2024/03/12 21:13:30;;;;;;;;;2.33;2.33;;;;;22.33;44.21;101493.63;4946626;28;45381;-78
2024/03/12 21:15:56;;;;;;;;;1.00;0.67;;;;;22.25;43.80;101478.53;4945963;28;45555;-79
2024/03/12 21:18:21;;;;;;;;;1.33;1.33;;;;;22.50;44.30;101517.50;4939055;28;46906;-77
2024/03/12 21:20:48;;;;;;;;;3.00;1.00;;;;;22.50;44.24;101510.38;4956561;28;45291;-75
2024/03/12 21:23:13;;;;;;;;;0.33;0.33;;;;;22.50;44.03;101513.00;4955077;28;45517;-78
2024/03/12 21:25:39;;;;;;;;;1.00;1.00;;;;;22.41;44.29;101500.75;4955810;28;45440;-80
2024/03/12 21:28:05;;;;;;;;;3.00;3.00;;;;;22.44;44.21;101504.88;4952284;28;46331;-76
2024/03/12 21:30:31;;;;;;;;;3.25;1.00;;;;;22.53;43.78;101517.16;4943065;28;45386;-80
2024/03/12 21:32:56;;;;;;;;;3.00;1.00;;;;;22.54;44.50;101521.44;4949445;28;45445;-76
2024/03/12 21:35:23;;;;;;;;;3.00;1.33;;;;;22.55;44.56;101515.16;4954192;28;45432;-80
2024/03/12 21:37:51;;;;;;;;;1.67;1.00;;;;;22.48;44.11;101508.88;4940485;28;45517;-80
2024/03/12 21:40:16;;;;;;;;;1.67;1.67;;;;;22.46;44.17;101513.50;4953875;28;45397;-80
2024/03/12 21:42:44;;;;;;;;;2.00;1.67;;;;;22.37;44.02;101494.13;4944778;28;46364;-83
2024/03/12 21:45:11;;;;;;;;;1.33;1.33;;;;;22.37;44.61;101494.97;4944714;28;45453;-79
2024/03/12 21:47:45;;;;;;;;;1.33;1.33;;;;;22.22;44.76;101464.81;4935624;28;45388;-79
2024/03/12 21:50:13;;;;;;;;;1.00;1.00;;;;;22.48;44.03;101508.88;4944938;28;45354;-81
2024/03/12 21:52:39;;;;;;;;;0.33;0.33;;;;;22.43;44.19;101497.94;4946219;28;45560;-80
2024/03/12 21:55:06;;;;;;;;;2.33;1.00;;;;;22.61;44.40;101529.59;4952035;28;45416;-76
2024/03/12 21:57:37;;;;;;;;;1.00;1.00;;;;;22.63;44.13;101532.88;4967946;28;47417;-76
2024/03/12 22:00:10;;;;;;;;;0.00;0.00;;;;;22.62;44.62;101529.41;4941118;28;45397;-75
2024/03/12 22:02:36;;;;;;;;;1.00;1.00;;;;;22.55;44.12;101506.38;4954353;28;45460;-76
2024/03/12 22:05:01;;;;;;;;;1.33;0.67;;;;;22.54;44.75;101510.00;4948151;28;45613;-75
2024/03/12 22:07:30;;;;;;;;;0.00;0.00;;;;;22.59;44.66;101516.47;4948354;28;45278;-79
2024/03/12 22:09:56;;;;;;;;;4.00;2.00;;;;;22.65;44.28;101525.59;4937739;28;45554;-79
2024/03/12 22:12:21;;;;;;;;;2.00;0.00;;;;;22.52;44.01;101513.66;4929852;28;45640;-75
2024/03/12 22:14:47;;;;;;;;;1.00;1.00;;;;;22.62;43.83;101528.56;4931417;28;45496;-77
2024/03/12 22:17:12;;;;;;;;;1.00;1.00;;;;;22.62;43.87;101531.22;4939762;28;46158;-74
2024/03/12 22:19:38;;;;;;;;;1.00;1.00;;;;;22.55;43.80;101522.28;4927296;28;45346;-76
2024/03/12 22:22:04;;;;;;;;;3.67;1.00;;;;;22.51;44.04;101519.97;4929553;28;45348;-77
2024/03/12 22:24:31;;;;;;;;;1.00;1.00;;;;;22.57;44.01;101534.38;4940158;28;45378;-77
2024/03/12 22:26:56;;;;;;;;;1.00;1.00;;;;;22.54;43.92;101532.06;4940506;28;46262;-78
2024/03/12 22:29:21;;;;;;;;;1.00;1.00;;;;;22.46;44.19;101521.44;4940231;28;45390;-77
2024/03/12 22:31:48;;;;;;;;;1.67;1.00;;;;;22.50;44.01;101528.09;4940400;28;45250;-77
2024/03/12 22:34:14;;;;;;;;;3.00;3.00;;;;;22.43;44.06;101519.97;4940038;28;45358;-78
2024/03/12 22:36:40;;;;;;;;;1.00;1.00;;;;;22.34;43.86;101503.25;4940229;28;47052;-77
2024/03/12 22:39:08;;;;;;;;;2.33;1.00;;;;;22.40;43.74;101512.34;4940542;28;45351;-78
2024/03/12 22:41:34;;;;;;;;;2.33;2.33;;;;;22.38;43.49;101520.47;4940031;28;45272;-78
2024/03/12 22:44:00;;;;;;;;;1.33;1.00;;;;;22.44;43.78;101528.75;4940061;28;45250;-77
2024/03/12 22:46:25;;;;;;;;;1.00;1.00;;;;;22.40;43.86;101529.06;4940028;28;46026;-77
2024/03/12 22:48:51;;;;;;;;;1.33;1.33;;;;;22.29;43.55;101503.75;4939798;28;45357;-78
2024/03/12 22:51:17;;;;;;;;;1.00;1.00;;;;;22.36;43.58;101519.81;4940104;28;45370;-79
2024/03/12 22:53:45;;;;;;;;;2.00;1.00;;;;;22.25;43.63;101505.06;4940191;28;45354;-74
2024/03/12 22:56:17;;;;;;;;;1.00;1.00;;;;;22.33;43.28;101514.81;4940125;28;45426;-76
2024/03/12 22:58:43;;;;;;;;;3.33;0.67;;;;;22.31;43.27;101519.47;4939863;28;45406;-76
2024/03/12 23:01:09;;;;;;;;;0.00;0.00;;;;;22.31;43.82;101523.94;4939856;28;45351;-77
2024/03/12 23:03:35;;;;;;;;;1.00;1.00;;;;;22.30;43.72;101523.13;4939694;28;45375;-78
2024/03/12 23:06:00;;;;;;;;;0.33;0.33;;;;;22.10;43.49;101496.94;4946563;28;46984;-78
2024/03/12 23:08:29;;;;;;;;;1.00;1.00;;;;;22.25;43.57;101515.66;4944994;28;45307;-77
2024/03/12 23:10:58;;;;;;;;;2.00;2.00;;;;;22.24;43.23;101521.97;4940322;28;45224;-77
2024/03/12 23:13:24;;;;;;;;;1.00;1.00;;;;;22.24;43.37;101519.31;4940337;28;45407;-76
2024/03/12 23:15:52;;;;;;;;;2.67;1.00;;;;;22.26;43.45;101535.03;4939997;28;47223;-78
2024/03/12 23:18:20;;;;;;;;;1.00;1.00;;;;;22.24;43.33;101518.47;4938919;28;45457;-77
2024/03/12 23:20:45;;;;;;;;;3.00;1.67;;;;;22.23;43.31;101525.59;4940847;28;45417;-77
2024/03/12 23:23:11;;;;;;;;;2.00;1.00;;;;;22.21;43.28;101519.66;4939651;28;45362;-77
2024/03/12 23:25:37;;;;;;;;;2.00;1.00;;;;;22.16;43.27;101509.53;4939366;28;45423;-78
2024/03/12 23:28:04;;;;;;;;;2.00;1.00;;;;;22.16;43.78;101514.00;4939598;28;45406;-78
2024/03/12 23:30:32;;;;;;;;;4.00;1.00;;;;;22.21;43.12;101511.69;4939377;28;45289;-76
2024/03/12 23:32:57;;;;;;;;;0.00;0.00;;;;;22.20;43.58;101512.66;4939184;28;45211;-78
2024/03/12 23:35:24;;;;;;;;;1.00;1.00;;;;;22.19;43.37;101513.69;4939424;28;46236;-76
2024/03/12 23:37:56;;;;;;;;;1.67;1.00;;;;;22.14;43.55;101503.59;4939255;28;45297;-77
2024/03/12 23:40:25;;;;;;;;;1.67;1.67;;;;;22.18;43.53;101514.66;4939187;28;45492;-78
2024/03/12 23:42:51;;;;;;;;;1.00;1.00;;;;;22.06;43.16;101493.81;4939343;28;45375;-78
2024/03/12 23:45:18;;;;;;;;;1.00;1.00;;;;;22.11;43.23;101503.06;4938930;28;46249;-78
2024/03/12 23:47:44;;;;;;;;;2.00;2.00;;;;;22.15;43.53;101509.69;4938866;28;45371;-79
2024/03/12 23:50:12;;;;;;;;;1.00;1.00;;;;;22.10;43.57;101509.34;4938854;28;45299;-79
2024/03/12 23:52:41;;;;;;;;;1.00;1.00;;;;;21.81;43.25;101459.28;4939010;28;45229;-78
2024/03/12 23:55:08;;;;;;;;;1.00;1.00;;;;;22.05;43.39;101505.38;4938951;28;46100;-76
2024/03/12 23:57:34;;;;;;;;;1.67;1.67;;;;;22.12;43.19;101515.34;4938868;28;45360;-78
